JOCKEYS / S.TRABELSSI
Nom : S.TRABELSSI
Partant : 113
1er : 9
2éme : 12
3éme : 19
4éme : 8
5éme : 8
LES DERNIÈRES PERFORMANCES
DATE
CHEVAUX
DISTANCE
RANG
TEMPS
ENTRAINEURS
GAGNE
  27/06/2012 CARTOUCHA 1200 m - MED.CHARNI -  
  27/06/2012 CHIKHAOUI 1200 m - A.B.JAAFAR -  
  27/06/2012 CHEDA L'BESS. 1400 m - T.BEN ALI -  
  27/06/2012 BISSA 1800 m - TAHAR TRIFI -  
  27/06/2012 NASSIM 1800 m - A.B.JAAFAR -  
  24/06/2012 BINT FATMA 2000 m 2 3.5 l A.B.JAAFAR 5500DT  
  24/06/2012 CHOUJAA EL KHIL 1600 m 4 1.5 l A.B.JAAFAR 1400DT  
  24/06/2012 TEJ EL AHLEM 1600 m 6 2 l CH.ALIBI -  
  24/06/2012 BECHFA 1400 m 4 4 l A.B.JAAFAR 540DT  
  17/06/2012 CHEDDOUNI 1700 m - LE PROPRIETAIRE -  
  17/06/2012 CHAMSS AL BADR 1700 m 6 2.5 l M. LAHBIBI -  
  17/06/2012 CHIRA 1400 m 3 loin LE PROPRIETAIRE 440DT  
  10/06/2012 CHOUJAA EL KHIL 1600 m 2 2 l A.B.JAAFAR 1650DT  
  10/06/2012 BOSSTAN AL BADR 1700 m 5 2l TAHAR TRIFI 375DT  
  27/05/2012 CHAHWA 1600 m 5 2 l RIDHA ATTIA 2000DT  
  27/05/2012 BINT MOUSSOUL 1600 m - S. MAROUANE -  
  26/05/2012 BOSSTAN AL BADR 1700 m 1 2'03"2/10 TAHAR TRIFI 2820DT  
  26/05/2012 AL KHALIL 2000 m 2 2.5 l RIDHA ATTIA 11000DT  
  26/05/2012 CHOKLATA 1600 m - M.S.BACCOUCHE -  
  20/05/2012 BOSSTAN AL BADR 2000 m 2 Enc TAHAR TRIFI 880DT  
  20/05/2012 AKEL 1600 m - M.MAHERZI -  
  20/05/2012 CHAHEM EDDOUNIA 1600 m - RIDHA ATTIA -  
  13/05/2012 BADIS 2000 m - S.BEJAOUI -  
  13/05/2012 BAHREIN 2000 m 3 2 l S.RAJHI 440DT  
  13/05/2012 BALOUMI 1400 m 5 1/2 l CH.ALIBI 375DT  
  13/05/2012 CHOUROUK ECHEMS 1400 m - E.GOUIDER -  
  13/05/2012 CHAHLOULA BARCHA 1400 m 5 1 l T.BEN ALI 200DT  
  06/05/2012 LUI SEUL 2100 m - MED.B.ALI -  
  06/05/2012 BECHFA 2000 m - A.B.JAAFAR -  
  06/05/2012 AL KHALIL 1600 m 5 1.5 l RIDHA ATTIA 600DT  
  06/05/2012 NASSIM 1600 m 6 loin A.B.JAAFAR -  
  06/05/2012 RUSSIAN GOLD 1600 m 6 loin ZIED ATTIA -  
  06/05/2012 BEYET EL KHOUYOUL 2000 m 5 2.5 l RIDHA ATTIA 600DT  
  06/05/2012 CHAHWA 1600 m 2 1.5 l RIDHA ATTIA 2640DT  
  06/05/2012 CHAHR 1600 m 2 1 l RIDHA ATTIA 2640DT  
  04/05/2012 BORKANE ENNAR 1200 m - RIDHA ATTIA -  
  04/05/2012 SAYED ZARZIS 1600 m - TAHAR TRIFI -  
  04/05/2012 CHAMHAROUCHE 1400 m 4 4l M.HAMRAOUI 182DT  
  29/04/2012 ASSABOUK 2000 m - M. LAHBIBI -  
  29/04/2012 CHADDOUNY 1400 m 4 DH RIDHA ATTIA 280DT  
  29/04/2012 CHAYMA BENT MEZRAYA 1400 m - T.BEN ALI -  
  29/04/2012 TOKMATI 1600 m 5 4 l S.BEJAOUI 600DT  
  29/04/2012 BOUNDOUKIA 1200 m 5 1/2 l S.BEJAOUI 200DT  
  29/04/2012 CHIRA 1400 m 6 1/2 l RIDHA ATTIA -  
  29/04/2012 VENT DU NORD 1700 m 4 4 l M.HAMRAOUI 280DT  
  22/04/2012 BASSEM 1700 m - A.B.JAAFAR -  
  22/04/2012 CHAHR 1600 m 1 1'57"2/10 RIDHA ATTIA 4125DT  
  22/04/2012 BEYET EL KHOUYOUL 1700 m 2 6 l RIDHA ATTIA 1080DT  
  20/04/2012 BAHR EL ARAB 1800 m - ZIED ATTIA -  
  20/04/2012 BOSSTAN AL BADR 1800 m 4 1l TAHAR TRIFI 315DT  
  13/04/2012 BAHR EL ARAB 1800 - ZIED ATTIA -  
  13/04/2012 CHAHWA 1400 2 1l RIDHA ATTIA 880DT  
  08/04/2012 BEJI 1600 m - RIDHA ATTIA -  
  08/04/2012 BORHANE 2000 m 3 1/2l M.MAHERZI 1320DT  
  08/04/2012 CHAHR 1400 m 2 1/2l RIDHA ATTIA 2640DT  
  08/04/2012 CHADDOUNY 1400 m 4 5l RIDHA ATTIA 280DT  
  08/04/2012 VENT DU NORD 1600 m 3 7l M.HAMRAOUI 440DT  
  06/04/2012 BADOUI AL BADR 1800 m 5 2.5l J. M'KADEM 225DT  
  01/04/2012 AL KHALIL 1400 m 1 1'36"5/10 RIDHA ATTIA 4125DT  
  01/04/2012 BAHR EL OUYOUN 1400 m 6 5l M.HAMRAOUI -  
  01/04/2012 BALMORAL 2000 m 3 6l ZIED ATTIA 825DT  
  01/04/2012 BINT MOUSSOUL 1600 m 6 loin S. MAROUANE -  
  01/04/2012 CHERMIN 1400 m - A.BENLAFFA -  
  30/03/2012 CHAHWA 1400 m 2 2l RIDHA ATTIA 880DT  
  30/03/2012 TAIR 1800 m 4 7l TAHAR TRIFI 280DT  
  25/03/2012 BECHIR 1600 m - H.BENLAFFA -  
  25/03/2012 CHAKEER 1400 m 2 1 l RIDHA ATTIA 880DT  
  25/03/2012 RUSSIAN GOLD 1400 m - ZIED ATTIA -  
  25/03/2012 ZEHEK 2000 m 6 A.CHARNI -  
  25/03/2012 AKIDAH 1600 m 2 4 l RIDHA ATTIA 5500DT  
  25/03/2012 SONG OF VESUVIES 1600 m 6 4 l ZIED ATTIA -  
  25/03/2012 BEYET EL KHOUYOUL 1600 m 1 1'54"1/10 RIDHA ATTIA 4125DT  
  23/03/2012 BEJI 1400 m 5 1l RIDHA ATTIA 200DT  
  23/03/2012 BARKA 1400 m - RIDHA ATTIA -  
  23/03/2012 TEYMOUR 1800 m 5 1l N. GHABRI 200DT  
  18/03/2012 ZEHEK 2000 m 1 2'26"4/10 A.CHARNI 2820DT  
  18/03/2012 CHADIDET EL MIRASS 1600 m 4 4 l ZIED RAJHI 840DT  
  18/03/2012 CHIBANI 1400m 4 1.5 l A.CHARNI 540DT  
  18/03/2012 CHAACHABOUNA 1400m 4 3 l A.CHARNI 540DT  
  11/03/2012 AALIA 2000 m 6 3 l ALI HAJERI 325DT  
  11/03/2012 CHAKEER 1600 m 2 5 l RIDHA ATTIA 880DT  
  11/03/2012 BEYET EL KHOUYOUL 1600 m 1 1'45"2/10 RIDHA ATTIA 2200DT  
  11/03/2012 CARTOUCHA 1600 m - ZIED ATTIA -  
  11/03/2012 CHAHR 1200 m 1 1'25"5/10 RIDHA ATTIA 2200DT  
  04/03/2012 BOULBOUL SFAX 2000 m 6 5 l HABIB HAJERI -  
  04/03/2012 AKIDAH 1600 m 1 1'52"7/10 RIDHA ATTIA 6600DT  
  04/03/2012 KINAWA 1600 m 5 1.5 l ZIED ATTIA 375DT  
  26/02/2012 BAROUD ESSALEM 1600 m - ZIED RAJHI -  
  26/02/2012 CHAHR 1400 m 2 3 l RIDHA ATTIA 2640DT  
  19/02/2012 ACHOUAK 1600 m 5 1/2 l M.HAMRAOUI 375DT  
  19/02/2012 BECHFA 2000 m - A.B.JAAFAR -  
  19/02/2012 ABER ETARIK 1400m - M.HAMRAOUI -  
  19/02/2012 CHAKEER 1400m 5 2.5 l RIDHA ATTIA 200DT  
  19/02/2012 TAMAREEN 2000 m 6 2 l N. GHABRI -  
  12/02/2012 BEYET EL KHOUYOUL 1600 m 2 RIDHA ATTIA 880DT  
  12/02/2012 BECHIR EL ARZ 1600 m - M.MAHERZI -  
  12/02/2012 ACTEUR 1600 m 2 1l A.CHARNI 1650DT  
  12/02/2012 CARTOUCHA 1400 m 4 1l ZIED ATTIA 280DT  
  12/02/2012 CHAHR 1400 m 2 3l RIDHA ATTIA 1650DT  
  05/02/2012 RIF 1400 m - S. MAROUANE -  
  05/02/2012 LORELAY QUEEN 1600 m 3 8l RIDHA ATTIA 825DT  
  05/02/2012 SAKHI 1400 m - RIDHA ATTIA -  
  05/02/2012 BORHANE 1600 m 1 1'52 M.MAHERZI 6600DT  
  05/02/2012 RUSSIAN GOLD 1600 m 4 1/2l M.HAMRAOUI 525DT  
  29/01/2012 BAROONI 2000 m 5 7 l S. MAROUANE 455DT  
  29/01/2012 CHAHR 1400 m 1 1'41 RIDHA ATTIA 2200DT  
  29/01/2012 BEYET EL KHOUYOUL 1700 m 4 1.5 l RIDHA ATTIA 280DT  
  29/01/2012 CHIRA 1400 m 2 10l RIDHA ATTIA 880DT  
  29/01/2012 CHOUBRA 1400 m - LE PROPRIETAIRE -  
  22/01/2012 ASSABOUK 1700 m - RIDHA ATTIA -  
  22/01/2012 ROSTOMANI 1700 m - A.B.HASSINE -  
  22/01/2012 KINAWA 2000 m 6 2.5 l ZIED ATTIA -  
  22/01/2012 CHAMHAROUCHE 1200 m - M.HAMRAOUI -  
  15/01/2012 ASSABOUK 2000 m - RIDHA ATTIA -  
  15/01/2012 BOULBOUL SFAX 1600 m - HABIB HAJERI -  
  15/01/2012 CHAHLA 1400m - RIDHA ATTIA -  
  08/01/2012 BECHFA 1700 m 4 3.5 l A.B.JAAFAR 280DT  
  08/01/2012 AZIZET EL BARKA 1600 m - A.B.JAAFAR -  
  08/01/2012 BAHREIN 1600 m - ZIED RAJHI -  
  08/01/2012 BACHAR 1600 m - M. LAHBIBI -  
  08/01/2012 RAMED 1600 m 5 3.5 l ZIED ATTIA 200DT  
  05/01/2012 BOURKEN 1200 m - ZIED RAJHI -  
  05/01/2012 BASRA 1400 m 5 RIDHA ATTIA 200DT  
  05/01/2012 BAHLAM BIC 1700 m - A.B.JAAFAR -  
  05/01/2012 CHAHAMET EL JANOUB 1200 m 1 1'25"3/10 A.B.JAAFAR 2200DT  
  05/01/2012 CHAHR 1400 m 1 1'41 RIDHA ATTIA 2200DT  
  05/01/2012 SILVER SENS 1600 m 2 A.CHARNI 880DT  
  31/12/2011 ACHOUAK 1600 m - M.HAMRAOUI -  
  25/12/2011 RAMED 1200 m - ZIED ATTIA -  
  25/12/2011 ZAYYEK 1600 m 1 1'57"6/10 A.CHARNI 2200DT  
  18/12/2011 TIR EL BORNI 2600 m 6 loin CH.ALIBI -  
  18/12/2011 CHAMS ENNIL 1400 m 4 2.5 l A.BENLAFFA 525DT  
  18/12/2011 CHARIHANE. 1400 m 1 1'42"8/10 MED.B.ALI 4125DT  
  18/12/2011 AL WIEM 1600 m 4 1.5 l M. LAHBIBI 280DT  
  14/12/2011 SAMRAN 2000 m - HABIB HAJERI -  
  14/12/2011 ALMAS 1400 m - N. GHABRI -  
  14/12/2011 BINT EL OUSSOUL 1400 m - N.OUAHRANI -  
  11/12/2011 ALIF 2100 m - A.BENLAFFA -  
  11/12/2011 BORJ EL AMRI 1400 m 4 TETE A.CHARNI 540DT  
  11/12/2011 BOUBA 1400 m 3 2.5 l A.CHARNI 660DT  
  11/12/2011 ZAKI 1400 m - D.SAADIA -  
  04/12/2011 BEYET EL KHOUYOUL 2000 m - RIDHA ATTIA -  
  04/12/2011 ACHOUAK 1400 m 1 1'36"9/10 M.HAMRAOUI 2200DT  
  04/12/2011 RUSSIAN GOLD 1600 m 6 6 l M.HAMRAOUI -  
  04/12/2011 ZAYYEK 1400 m 5 2 l A.CHARNI 225DT  
  27/11/2011 BEY ZMANOU 1600 m - RIDHA ATTIA -  
  27/11/2011 ZAHIR 1600 m 3 1 l A.CHARNI 1100DT  
  27/11/2011 STAR FLYER 1600 m 5 9 l RIDHA ATTIA 200DT  
  20/11/2011 ZAFIR AL BADR 1400 m - ZIED ATTIA -  
  20/11/2011 CLASSICAL GIRL 2000 m 2 6 l A.CHARNI 2200DT  
  20/11/2011 ZINJIYAT AL BADR 1600 m 3 1 l J. M'KADEM 1100DT  
  20/11/2011 AL WIEM 1600 m 5 9 l M. LAHBIBI 200DT  
  13/11/2011 STAR FLYER 2000 m - RIDHA ATTIA -  
  13/11/2011 BEY ZMANOU 1400 m - RIDHA ATTIA -  
  13/11/2011 BINT MOUSSOUL 1600 m 4 7 l S. MAROUANE 700DT  
  13/11/2011 BASRA 1400 m 4 N RIDHA ATTIA 280DT  
  30/10/2011 ZAD EL MALEK 1600 m - A.B.JAAFAR -  
  21/10/2011 RUSSIAN GOLD 1200 m - M.HAMRAOUI -  
  16/10/2011 ZAFIR EL GHALI 2000 m 6 8 l TAHAR TRIFI 325DT  
  16/10/2011 BISSAT AL BADR 2000 m - ZIED ATTIA -  
  16/10/2011 BAHER 1600 m 5 loin MED.B.ALI 500DT  
  16/10/2011 BINT MOUSSOUL 1600 m 3 1/2 l MED.B.ALI 1100DT  
  09/10/2011 BECHFA 1600 m 6 2.5 l A.B.JAAFAR -  
  09/10/2011 STAR FLYER 1600 m - RIDHA ATTIA -  
  09/10/2011 BASRA 1600 m 5 1 l RIDHA ATTIA 375DT  
  09/10/2011 CHAMCHAM 1000 m 5 loin A.B.JAAFAR 200DT  
  02/10/2011 BAHBOUH 1400 m 6 2.5 l A.BENLAFFA -  
  02/10/2011 AKEL 2000 m 3 3.5 l M.MAHERZI 715DT  
  02/10/2011 BISSAT AL BADR 1400 m 6 1 l ZIED ATTIA -  
  02/10/2011 AKSARAY 1600 m 3 1.5 l ZIED ATTIA 440DT  
  25/09/2011 AKEL 1600 m 2 1.5 l M.MAHERZI 990DT  
  25/09/2011 AKSARAY 1600 m 2 loin ZIED ATTIA 1650DT  
  25/09/2011 BECHFA 1400m 2 1.5 l A.B.JAAFAR 1650DT  
  25/09/2011 RAMED 1400m 4 5 l ZIED ATTIA 525DT  
  25/09/2011 BARIK AL BADR 1400m 6 loin ZIED ATTIA -  
  25/09/2011 ZAD EL MALEK 1400m - HABIB HAJERI -  
  18/09/2011 AL WASL.SP 1400m 1 1'38"6/10 A.CHARNI 2820DT  
  18/09/2011 BLANGI 1400m - A.B.JAAFAR -  
  18/09/2011 BAYECH 1400m 5 2.5 l N. GHABRI 375DT  
  18/09/2011 BASRA 1400m 3 6 l RIDHA ATTIA 440DT  
  18/09/2011 RAMED 1200 m - ZIED ATTIA -  
  29/07/2011 BARD 2000M 6 2l A.B.JAAFAR -  
  29/07/2011 BARIK AL BADR 2000M 1 2'23"2/10 ZIED ATTIA 2200DT  
  29/07/2011 ASSAD ESSAHRA 1400M 3 1l A.B.JAAFAR 495DT  
  29/07/2011 AKSARAY 1800M 1 2'01"4/10 ZIED ATTIA 2200DT  
  29/07/2011 ASSABOUK 1800M 5 3l RIDHA ATTIA 200DT  
  29/07/2011 RAMED 1200M - ZIED ATTIA -  
  23/07/2011 ALMAS 1400M 3 4l N. GHABRI 440DT  
  23/07/2011 SAMAHNI 1400M 5 2l ZIED ATTIA 200DT  
  23/07/2011 ASSABOUK 1400M - RIDHA ATTIA -  
  23/07/2011 ASSAD ESSAHRA 1200M 4 1/2l A.B.JAAFAR 182DT  
  23/07/2011 BAHER 1200M - AMOR DRIDI -  
  23/07/2011 BARIK AL BADR 1400M 3 CT ZIED ATTIA 440DT  
  16/07/2011 ABBES 2000M 1 2'25"5/10 S.BEJAOUI 2475DT  
  16/07/2011 BAHER 1400M 2 2l AMOR DRIDI 880DT  
  16/07/2011 AKEL 1400M 1 1'34"5/10 M.MAHERZI 2200DT  
  16/07/2011 BADR EL KHOUYOUL 1400M 3 1l A.B.JAAFAR 286DT  
  16/07/2011 AKSARAY 1400M 1 1'28 ZIED ATTIA 2200DT  
  09/07/2011 SERRI 1400M 4 1.5l N. GHABRI 280DT  
  09/07/2011 ACHOURA 1800M - N. GHABRI -  
  09/07/2011 ZAMALEK 1800M - MED.B.ALI -  
  09/07/2011 ABBES 1800M 2 enc S.BEJAOUI 880DT  
  09/07/2011 BOUDOUR AL BADR 1200M - ZIED ATTIA -  
  09/07/2011 RAMED 1400M - ZIED ATTIA -  
  02/07/2011 STAR FLYER 1800M 3 1l ZIED ATTIA 440DT  
  02/07/2011 ASSABOUK 1800M 1 2'10"4/10 RIDHA ATTIA 2200DT  
  02/07/2011 AL WIEM 1400M 6 2l M. LAHBIBI -  
  02/07/2011 ASSAD ESSAHRA 1400M 1 1'33"7/10 A.B.JAAFAR 2200DT  
  02/07/2011 BARIK AL BADR 1400M - ZIED ATTIA -  
  05/06/2011 AL MOUTAWEJ 1600M 4 CT A.CHARNI 540DT  
  05/06/2011 BLANGI 1600M - A.B.JAAFAR -  
  05/06/2011 BARIK AL BADR 1600M - ZIED ATTIA -  
  05/06/2011 RAMED 1200M 3 8l ZIED ATTIA 825DT  
  05/06/2011 AKSARAY 1600M 1 1'46"5/10 ZIED ATTIA 2475DT  
  29/05/2011 ALI EL MAKAM 2000M - M.MAHERZI -  
  29/05/2011 AL MOUTAWEJ 2000M - A.CHARNI -  
  29/05/2011 SOHAR 2000M 4 7l A.CHARNI 4900DT  
  29/05/2011 ZILZEL 1600M 1 1'56"1/10 M.MAHERZI 3055DT  
  29/05/2011 DOUBLE MINT 2200M - RIDHA ATTIA -  
  22/05/2011 RAMED 1200M 1 1'24 ZIED ATTIA 2475DT  
  22/05/2011 AKEL 2000m 5 1l M.MAHERZI 420DT  
  22/05/2011 BELIGH 1200M - N. GHABRI -  
  22/05/2011 AMRA 1400M 2 3.5l A.B.JAAFAR 880DT  
  22/05/2011 BECHFA 1600M 2 CT A.B.JAAFAR 880DT  
  22/05/2011 ABOU EL KHIR 1600M 5 9l M.HAMRAOUI 130DT  
  22/05/2011 SMART DANCER 1400M 2 4l A.B.JAAFAR 990DT  
  18/05/2011 AMREK AGIB 2000M 5 A.B.JAAFAR -  
  18/05/2011 BALHA 1400M 1 TNC A.B.JAAFAR 2200DT  
  15/05/2011 ZILZEL 1600M 2 2l M.MAHERZI 990DT  
  15/05/2011 BASMAT AL BADR 1400M - A.BENLAFFA -  
  15/05/2011 IRISH WELL 2000m 1 2'25"3/10 A.CHARNI 2200DT  
  15/05/2011 AL MOUTAWEJ 1400M 1 1'41"2/10 A.CHARNI 2200DT  
  08/05/2011 BINT HAJMA 1400M 3 3.5l M.HAMRAOUI 1100DT  
  08/05/2011 AKSARAY 1600M 3 loin ZIED ATTIA 2200DT  
  08/05/2011 BOUTADI 1400M 5 Enc M.S.BACCOUCHE 500DT  
  01/05/2011 AL MOUTAWEJ 1600M 3 1l A.CHARNI 715DT  
  01/05/2011 AZEYEZ GALBI 2000m - M. LAHBIBI -  
  01/05/2011 BAYA EL MEZIANA 1200M 3 3/4l E.GOUIDER 286DT  
  30/04/2011 ACHOUAK 1200M 1 1'25"5/10 M.HAMRAOUI 2200DT  
  24/04/2011 AYKALLEM 1200M 1 1'23"7/10 A.CHARNI 2820DT  
  24/04/2011 TAK 2100M 4 1.5l A.B.JAAFAR 700DT  
  24/04/2011 ASSABAKA 1600M 2 8l M.S.BACCOUCHE 2200DT  
  24/04/2011 AKSARAY 1600M 2 loin ZIED ATTIA 2200DT  
  24/04/2011 BOSSTAN AL BADR 1200M - ZIED ATTIA -  
  24/04/2011 ZAFIR EL GHALI 2000m 3 1l TAHAR TRIFI 715DT  
  17/04/2011 AZEYEZ GALBI 2000m 1 2'39"2/10 M. LAHBIBI 2200DT  
  17/04/2011 ZINOUBYA 1400M 6 loin S.CHEBIL -  
  16/04/2011 ZAFIR EL GHALI 2100M 5 N TAHAR TRIFI 455DT  
  16/04/2011 SOHAR 1600M 1 1'51"1/10 A.CHARNI 2200DT  
  16/04/2011 BOSSTAN AL BADR 1600M 2 1l ZIED ATTIA 880DT  
  16/04/2011 BALMORAL 2000m 3 Nez ZIED ATTIA 825DT  
  10/04/2011 ZAFIR EL GHALI 1600M 3 1/2l TAHAR TRIFI 715DT  
  10/04/2011 AYKALLEM 1400M 4 CT A.CHARNI 280DT  
  10/04/2011 AKSARAY 1400M 3 4l ZIED ATTIA 1100DT  
  10/04/2011 BAHJET LANDHAR 1600M 1 2'01 A.CHARNI 2200DT  
  10/04/2011 ZHAR EL BAHJA 1400M 5 CT A.CHARNI 200DT  
  10/04/2011 ACHOUAK 1400M 1 1'41"6/10 M.HAMRAOUI 2200DT  
  03/04/2011 AZEYEZ GALBI 1600M 5 1.5l M. LAHBIBI 375DT  
  03/04/2011 ANWAR ELJANOUB 1600M - ZIED ATTIA -  
  03/04/2011 DARRAGINO 1600M 1 1'50"8/10 A.CHARNI 2200DT  
  27/03/2011 BADAD 1400M 2 2l A.B.JAAFAR 880DT  
  27/03/2011 AYKALLEM 1200M 4 3l A.CHARNI 280DT  
  27/03/2011 ZHAR EL BAHJA 1000M 2 1/2l A.CHARNI 880DT  
  27/03/2011 AKSARAY 1600M 3 5l ZIED ATTIA 440DT  
  12/02/2011 BENT RIMAYA 1200M - M.KHAZMI -  
  12/02/2011 BAHIA 1400M 5 loin M.S.BACCOUCHE 200DT  
  09/01/2011 ZOUFAR 1600M - A.CHARNI -  
  09/01/2011 ZAFIR AL BADR 1200M - M.KHAZMI -  
  09/01/2011 BOSSTAN AL BADR 1200M - M.KHAZMI -  
  09/01/2011 ABOUD 1600M 3 9l M.KHAZMI 825DT  
  02/01/2011 ZAFIR EL GHALI 2000M 3 1l TAHAR TRIFI 440DT  
  02/01/2011 ZHAR EL BAHJA 1600M 2 1.5l A.CHARNI 880DT  
  02/01/2011 AYKALLEM 1400M 5 6l A.CHARNI 200DT  
  02/01/2011 BADR EL KARIM 1400M 2 3l Y. GHABRI 880DT  
  19/12/2010 AL MOUTAWEJ 1400M 4 ENC A.CHARNI 252DT  
  19/12/2010 RAMED 1700M 2 1L M.KHAZMI 880DT  
  19/12/2010 ZAD EL MALEK 1600M - HABIB HAJERI -  
  19/12/2010 ZELDA 2000M - MED.B.ALI -  
  19/12/2010 ASSRAR AL BADR 1400M - A.B.JAAFAR -  
  19/12/2010 ARSLEN 1600M 2 1L MED.B.ALI 572DT  
  19/12/2010 COUP DE CHANCE 2200M 6 ENC A.B.JAAFAR -  
  15/12/2010 AMREK AGIB 1400M 1 1'32"4/10 A.B.JAAFAR 1980DT  
  12/12/2010 COUP DE CHANCE 2100M 6 A.B.JAAFAR -  
  12/12/2010 ABOUD 2000M 5 3L M.KHAZMI 200DT  
  12/12/2010 ZAYYEK 1200M 3 TETE A.CHARNI 715DT  
  12/12/2010 BAHIA 1600M 5 LOIN M.S.BACCOUCHE 200DT  
  12/12/2010 ZAKI 1700M - D.SAADIA -  
  05/12/2010 TAYSSIR BACHA 2100M - MED.CHARNI -  
  05/12/2010 AKSARAY 1600M - M.KHAZMI -  
  28/11/2010 ZAFIR AL BADR 1200M 2 2L M.KHAZMI 990DT  
  28/11/2010 AL MOUTAWEJ 1600M 5 2L A.CHARNI 225DT  
  28/11/2010 SIDI THABET 1600M - M.S.BACCOUCHE -  
  28/11/2010 ZAZIA EJJERBIA 2000M - M. LAHBIBI -  
  28/11/2010 RAMED 2000M 4 1.5L M.KHAZMI 280DT  
  21/11/2010 LE GEOGRAPHE.SP 1600 5 LOIN A.CHARNI 325DT  
  21/11/2010 AZIZET AL ARZ 2000 6 3.5L M.MAHERZI -  
  21/11/2010 ABOUD 2000 - M.KHAZMI -  
  21/11/2010 RAMED 1600 2 1/2L M.KHAZMI 792DT  
  21/11/2010 SMART DANCER 2000 5 5L A.B.JAAFAR 200DT  
  21/11/2010 ZAZIA EJJERBIA 1600 1 2 M. LAHBIBI 1980DT  
  14/11/2010 TOHFAT AMINA 2000M 6 8L M.MAHERZI -  
  14/11/2010 ASSABOUK 2000M 1 2' 31 A.CHARNI -  
  14/11/2010 ANWAR EL KHIL 1600M 3 8L M.MAHERZI -  
  14/11/2010 AZIZET AL ARZ 2000M 6 1/2 L M.MAHERZI -  
  14/11/2010 ZAFIR AL BADR 1600M 4 9L M.KHAZMI -  
  07/11/2010 AZIZET EDDAR 1700M 4 3.5L A.BENLAFFA 280DT  
  07/11/2010 AMIRET EL OUMARA.SP 1600M - M.KHAZMI -  
  07/11/2010 BADHRA 1400M 4 1L A.BENLAFFA 280DT  
  31/10/2010 AYKALLEM 1700M 6 LOIN A.CHARNI -  
  31/10/2010 ZAFEF AL BADR 1600M 1 1'59"6/10 M.KHAZMI 1980DT  
  31/10/2010 AZIZAT AL BADR 1700M - S. MAROUANE -  
  31/10/2010 TOHFAT AMINA 1200M 3 1/2L M.MAHERZI 440DT  
  31/10/2010 LA DIVA 1600M 1 1'55"2/0 AMOR DRIDI 1430DT  
  24/10/2010 OUAQF 1400M 2 5L MED.B.ALI 990DT  
  24/10/2010 TANWEER 1200M 4 2L J.P.MELLOUL 280DT  
  24/10/2010 ANWAR EL KHIL 1600M 4 6L M.MAHERZI 280DT  
  24/10/2010 ABOUD 1600M - M.KHAZMI -  
  24/10/2010 RAMED 2000M 4 3L M.KHAZMI 182DT  
  17/10/2010 RAMED 1600M 3 9L M.KHAZMI 440DT  
  17/10/2010 NEW LADY 1700M 3 1/2L A.CHARNI 440DT  
  17/10/2010 ANWILKA 2100M - S.TORKHANI -  
  17/10/2010 ABOU DHABI 1700M 5 2 J.P.MELLOUL 130DT  
  10/10/2010 SEDRATY 1600M 5 2.5L S. MAROUANE 455DT  
  10/10/2010 ANWAR ELJANOUB 1600M 1 1'58"2/10 M.KHAZMI 3575DT  
  10/10/2010 TALISMAN 1700M 6 3.5L A.BENLAFFA -  
  10/10/2010 ANTON 1200M 1 1'19"4/10 S.RAJHI 2475DT  
  03/10/2010 AZIZAT AL BADR 1400M 3 6L S. MAROUANE 396DT  
  03/10/2010 ABOUD 1400M 1 1'39"6/10 M.KHAZMI 1980DT  
  03/10/2010 OUAQF 1200M 2 6L MED.B.ALI 990DT  
  27/06/2010 TAYLESSEN 1700M - RIDHA ATTIA -  
  27/06/2010 ZAZIA 1400M 6 TETE AMOR DRIDI -  
  27/06/2010 TOHFAT AMINA 1200M 2 1.5L M.MAHERZI 880DT  
  27/06/2010 AZIZAT AL BADR 1200M 5 2.5L RIDHA ATTIA 180DT  
  27/06/2010 ABOUD 1200M 2 ENC RIDHA ATTIA 792DT  
  27/06/2010 ACTION PLEASE 1700M 3 3L RIDHA ATTIA 715DT  
  27/06/2010 COUP DE CHANCE 1700 M 2 7L MED.B.ALI 990DT  
  20/06/2010 ABOUD 2000M 2 2.5L RIDHA ATTIA 880DT  
  20/06/2010 ZENJABIL 1600M - Y. GHABRI -  
  20/06/2010 TOHFAT AMINA 1600M 2 LOIN M.MAHERZI 792DT  
  20/06/2010 ABOU DHABI 1200M 2 LOIN J.P.MELLOUL 572DT  
  20/06/2010 ACTION PLEASE 1400M 4 3.5L RIDHA ATTIA 280DT  
  13/06/2010 TANWEER 2100M 5 TETE J.P.MELLOUL 455DT  
  13/06/2010 TAYLESSEN 1600M 1 1'57"4/10 RIDHA ATTIA 2200DT  
  06/06/2010 OUAFI 2000m 4 1/2L HABIB HAJERI 585DT  
  06/06/2010 AYKALLEM 1600m 2 2L A.CHARNI 792DT  
  06/06/2010 TAYLESSEN 1400m 4 1/2L RIDHA ATTIA 280DT  
  06/06/2010 ZAZIA EL MATRIA 1400M 5 5L M.MAHERZI -  
  06/06/2010 ACTION PLEASE 2100m 1 2'30'6/10 RIDHA ATTIA 2200DT  
  30/05/2010 RAMED 2000M 2 5L RIDHA ATTIA 880DT  
  30/05/2010 ZAZIA EL MATRIA 1200M 4 1/2L M.MAHERZI 280DT  
  30/05/2010 ZAD EL MALEK 2000M 5 6L RIDHA ATTIA 200DT  
  30/05/2010 ANWAR EL KHIL 1400M 1 M.MAHERZI -  
  23/05/2010 TAYLESSEN 1200m 3 1.5L RIDHA ATTIA 715DT  
  23/05/2010 ANWAR ELJANOUB 1600m - RIDHA ATTIA -  
  16/05/2010 TAH RAH 2000m - A.B.JAAFAR -  
  16/05/2010 TOHFAT AL BADR 2000m 3 3/4L RIDHA ATTIA 440DT  
  16/05/2010 AZIZAT AL BADR 1700m - RIDHA ATTIA -  
  16/05/2010 ABOUD 1700m 5 1.5L RIDHA ATTIA 180DT  
  16/05/2010 ZAD EL MALEK 1600m - A.B.JAAFAR -  
  16/05/2010 ZAZIA EL MATRIA 1600m 1 2.02.3/10 M.MAHERZI 1980DT  
  16/05/2010 ACTION PLEASE 2000m 1 2 28 3/10 RIDHA ATTIA 2200DT  
  08/05/2010 TAYLESSEN 1600m 1 1.57.2/10 RIDHA ATTIA 3.055DT  
  08/05/2010 AMANI 1600m 3 3.5L N. GHABRI 396DT  
  08/05/2010 AYEM 1200m - E.GOUIDER -  
  08/05/2010 ACTION PLEASE 2100m 3 LOIN RIDHA ATTIA 440DT  
  02/05/2010 TAHYAT AL BADR 1600m 5 RIDHA ATTIA -  
  02/05/2010 ALTE KONIGIN 2000m - RIDHA ATTIA -  
  02/05/2010 AL MOUTAWEJ 1200m - A.CHARNI -  
  02/05/2010 ANWAR ELJANOUB 1200m 2 tête RIDHA ATTIA -  
  18/04/2010 AHSSEN MINHOUM 1400m 3 1.5L S. MAROUANE 396DT  
  18/04/2010 AYKALLEM 1400m 3 NEZ A.CHARNI 396DT  
  11/04/2010 TAHANEE AL BADR 1700m 1 2 022/10 RIDHA ATTIA 3575DT  
  11/04/2010 ALTE KONIGIN 1700m 6 2L RIDHA ATTIA -  
  04/04/2010 TAROUDAN 1600m 3 TETE M.S.BACCOUCHE 495DT  
  04/04/2010 ACILET CH'BIKA 1400m 2 1L RIDHA ATTIA 2200DT  
  04/04/2010 SARATOGA 1700m 2 3.5L A.CHARNI 880DT  
  28/03/2010 SIDI THABET 1700m 3 1.5L M.S.BACCOUCHE 440DT  
  28/03/2010 HYLMAX 1700m 5 7L M.S.BACCOUCHE 325DT  
  28/03/2010 ABOUD 1600m 9 RIDHA ATTIA -  
  28/03/2010 AZIZETNA 1600m 5 1/2L A.B.JAAFAR 200DT  
  28/03/2010 ZAF ZEF 1200m 3 1.5L RIDHA ATTIA 396DT  
  28/03/2010 ZAHRET AL BADR 1200m 3 4L RIDHA ATTIA 396DT  
  26/03/2010 AZIZAT AL BADR 1400m 2 1/2L RIDHA ATTIA 792DT  
  21/03/2010 TAROUDAN 1700m 5 NEZ M.S.BACCOUCHE 225DT  
  21/03/2010 AL YAMAMA 1400m 7 AMOR DRIDI -  
  14/03/2010 ABOUD 1400m 8 RIDHA ATTIA -  
  14/03/2010 ZEMEN KHAN 2000m 7 E.GOUIDER -  
  14/03/2010 AANOUD AL BADR 1400m 1 1 376/10 RIDHA ATTIA 1980DT  
  07/03/2010 ZEMEN KHAN 2000m 3 5L E.GOUIDER 495DT  
  07/03/2010 TAHYAT AL BADR 1200m 1 1 237/10 RIDHA ATTIA 2200DT  
  28/02/2010 AJMAL MOHRAT 1400m 5 5L N. GHABRI 200DT  
  28/02/2010 ABER SABIL 1400m 7 A.B.JAAFAR -  
  21/02/2010 ZAHRET AL BADR 1200m 2 1/2L RIDHA ATTIA 792DT  
  21/02/2010 ROUH EL FELL 1600m 6 LOIN A.B.JAAFAR -  
  21/02/2010 TAL EZZAATAR 1600m 3 3L A.CHARNI 495DT  
  21/02/2010 ABOUD 1400m 7 RIDHA ATTIA -  
  14/02/2010 ZENZIBAR 2000m 6 TETE A.B.JAAFAR -  
  14/02/2010 ZAHRET EL BOUSTEN 2000m 3 3.5L RIDHA ATTIA 440DT  
  14/02/2010 AL YAMAMA 1400m 4 2L AMOR DRIDI 252DT  
  14/02/2010 ABER SABIL 1400m 2 LOIN A.B.JAAFAR 792DT  
  07/02/2010 SAKHI 2600m 9 RIDHA ATTIA -  
  07/02/2010 ALAYA 1600m 9 ALI HAJERI -  
  07/02/2010 ABOUD 1400m 7 RIDHA ATTIA -  
  31/01/2010 ZAHRET AL BADR 1600m 6 ENC S. MAROUANE -  
  24/01/2010 ANWAR ELJANOUB 1200m 1 1 249/10 RIDHA ATTIA 2200DT  
  24/01/2010 AAREK AL BADR 1200m 7 RIDHA ATTIA -  
  24/01/2010 IRISH SCHOOL 1400m 1 1 352/10 A.CHARNI 2200DT  
  03/01/2010 SALMANASAR 2000m 3 1/2L M.S.BACCOUCHE 440DT  
  03/01/2010 HYLMAX 1700m 5 LOIN M.S.BACCOUCHE 200DT  
  03/01/2010 ZAFIRA 1400m 8 M.CHEBIL -